sensor_id;sensor_type;location;lat;lon;timestamp;P1;durP1;ratioP1;P2;durP2;ratioP2
20449;SDS011;10384;51.940;8.432;2022-12-20T00:00:41;7.97;;;4.20;;
20449;SDS011;10384;51.940;8.432;2022-12-20T00:03:07;7.93;;;3.40;;
20449;SDS011;10384;51.940;8.432;2022-12-20T00:05:37;5.67;;;3.20;;
20449;SDS011;10384;51.940;8.432;2022-12-20T00:08:03;9.17;;;3.63;;
20449;SDS011;10384;51.940;8.432;2022-12-20T00:10:30;9.80;;;4.10;;
20449;SDS011;10384;51.940;8.432;2022-12-20T00:12:55;10.40;;;3.87;;
20449;SDS011;10384;51.940;8.432;2022-12-20T00:15:21;8.57;;;3.50;;
20449;SDS011;10384;51.940;8.432;2022-12-20T00:17:47;5.43;;;3.07;;
20449;SDS011;10384;51.940;8.432;2022-12-20T00:20:13;7.80;;;3.67;;
20449;SDS011;10384;51.940;8.432;2022-12-20T00:22:39;7.93;;;3.20;;
20449;SDS011;10384;51.940;8.432;2022-12-20T00:25:05;6.43;;;3.30;;
20449;SDS011;10384;51.940;8.432;2022-12-20T00:27:31;6.77;;;3.60;;
20449;SDS011;10384;51.940;8.432;2022-12-20T00:29:57;7.50;;;3.30;;
20449;SDS011;10384;51.940;8.432;2022-12-20T00:32:23;6.53;;;3.20;;
20449;SDS011;10384;51.940;8.432;2022-12-20T00:34:49;7.20;;;3.43;;
20449;SDS011;10384;51.940;8.432;2022-12-20T00:37:15;7.23;;;3.10;;
20449;SDS011;10384;51.940;8.432;2022-12-20T00:39:41;9.43;;;3.63;;
20449;SDS011;10384;51.940;8.432;2022-12-20T00:42:07;10.13;;;3.70;;
20449;SDS011;10384;51.940;8.432;2022-12-20T00:44:33;8.43;;;3.60;;
20449;SDS011;10384;51.940;8.432;2022-12-20T00:46:59;6.63;;;2.90;;
20449;SDS011;10384;51.940;8.432;2022-12-20T00:49:25;8.17;;;3.30;;
20449;SDS011;10384;51.940;8.432;2022-12-20T00:51:51;7.27;;;3.47;;
20449;SDS011;10384;51.940;8.432;2022-12-20T00:54:17;7.70;;;2.87;;
20449;SDS011;10384;51.940;8.432;2022-12-20T00:56:43;5.80;;;2.70;;
20449;SDS011;10384;51.940;8.432;2022-12-20T00:59:09;9.10;;;3.20;;
20449;SDS011;10384;51.940;8.432;2022-12-20T01:01:35;6.73;;;3.00;;
20449;SDS011;10384;51.940;8.432;2022-12-20T01:04:01;4.67;;;2.90;;
20449;SDS011;10384;51.940;8.432;2022-12-20T01:06:28;4.00;;;2.70;;
20449;SDS011;10384;51.940;8.432;2022-12-20T01:08:54;6.63;;;3.20;;
20449;SDS011;10384;51.940;8.432;2022-12-20T01:11:21;4.37;;;2.90;;
20449;SDS011;10384;51.940;8.432;2022-12-20T01:13:48;7.27;;;2.93;;
20449;SDS011;10384;51.940;8.432;2022-12-20T01:16:22;4.60;;;2.73;;
20449;SDS011;10384;51.940;8.432;2022-12-20T01:18:48;4.67;;;2.70;;
20449;SDS011;10384;51.940;8.432;2022-12-20T01:21:15;4.47;;;2.40;;
20449;SDS011;10384;51.940;8.432;2022-12-20T01:23:41;5.33;;;2.77;;
20449;SDS011;10384;51.940;8.432;2022-12-20T01:26:08;4.57;;;2.70;;
20449;SDS011;10384;51.940;8.432;2022-12-20T01:28:35;6.83;;;2.67;;
20449;SDS011;10384;51.940;8.432;2022-12-20T01:31:04;6.17;;;2.90;;
20449;SDS011;10384;51.940;8.432;2022-12-20T01:33:31;6.83;;;2.70;;
20449;SDS011;10384;51.940;8.432;2022-12-20T01:36:01;5.13;;;2.67;;
20449;SDS011;10384;51.940;8.432;2022-12-20T01:38:27;5.53;;;2.27;;
20449;SDS011;10384;51.940;8.432;2022-12-20T01:40:53;5.03;;;2.20;;
20449;SDS011;10384;51.940;8.432;2022-12-20T01:43:20;5.20;;;2.60;;
20449;SDS011;10384;51.940;8.432;2022-12-20T01:45:46;5.10;;;2.20;;
20449;SDS011;10384;51.940;8.432;2022-12-20T01:48:15;6.27;;;2.73;;
20449;SDS011;10384;51.940;8.432;2022-12-20T01:50:43;6.60;;;2.63;;
20449;SDS011;10384;51.940;8.432;2022-12-20T01:53:09;7.73;;;2.50;;
20449;SDS011;10384;51.940;8.432;2022-12-20T01:55:35;3.87;;;2.30;;
20449;SDS011;10384;51.940;8.432;2022-12-20T01:58:05;3.77;;;2.50;;
20449;SDS011;10384;51.940;8.432;2022-12-20T02:00:32;4.63;;;2.40;;
20449;SDS011;10384;51.940;8.432;2022-12-20T02:02:58;4.33;;;2.40;;
20449;SDS011;10384;51.940;8.432;2022-12-20T02:05:25;5.07;;;2.63;;
20449;SDS011;10384;51.940;8.432;2022-12-20T02:07:52;7.23;;;2.57;;
20449;SDS011;10384;51.940;8.432;2022-12-20T02:10:20;3.77;;;2.00;;
20449;SDS011;10384;51.940;8.432;2022-12-20T02:12:47;4.50;;;2.53;;
20449;SDS011;10384;51.940;8.432;2022-12-20T02:15:29;5.03;;;2.30;;
20449;SDS011;10384;51.940;8.432;2022-12-20T02:18:05;3.47;;;2.10;;
20449;SDS011;10384;51.940;8.432;2022-12-20T02:26:13;4.20;;;2.10;;
20449;SDS011;10384;51.940;8.432;2022-12-20T02:28:50;3.53;;;2.03;;
20449;SDS011;10384;51.940;8.432;2022-12-20T02:31:25;4.33;;;2.63;;
20449;SDS011;10384;51.940;8.432;2022-12-20T02:33:52;3.83;;;1.97;;
20449;SDS011;10384;51.940;8.432;2022-12-20T02:36:19;5.67;;;2.77;;
20449;SDS011;10384;51.940;8.432;2022-12-20T02:38:45;4.80;;;2.07;;
20449;SDS011;10384;51.940;8.432;2022-12-20T02:41:29;5.20;;;2.33;;
20449;SDS011;10384;51.940;8.432;2022-12-20T02:44:04;5.00;;;2.47;;
20449;SDS011;10384;51.940;8.432;2022-12-20T02:46:50;4.57;;;2.20;;
20449;SDS011;10384;51.940;8.432;2022-12-20T02:49:18;5.33;;;2.40;;
20449;SDS011;10384;51.940;8.432;2022-12-20T02:51:46;4.07;;;2.13;;
20449;SDS011;10384;51.940;8.432;2022-12-20T02:54:12;3.00;;;2.00;;
20449;SDS011;10384;51.940;8.432;2022-12-20T02:57:24;4.03;;;2.40;;
20449;SDS011;10384;51.940;8.432;2022-12-20T02:59:29;3.90;;;2.33;;
20449;SDS011;10384;51.940;8.432;2022-12-20T03:01:58;4.57;;;2.10;;
20449;SDS011;10384;51.940;8.432;2022-12-20T03:04:25;5.50;;;2.30;;
20449;SDS011;10384;51.940;8.432;2022-12-20T03:09:21;6.40;;;2.60;;
20449;SDS011;10384;51.940;8.432;2022-12-20T03:11:47;5.53;;;2.30;;
20449;SDS011;10384;51.940;8.432;2022-12-20T03:14:13;3.40;;;2.00;;
20449;SDS011;10384;51.940;8.432;2022-12-20T03:16:39;3.47;;;2.10;;
20449;SDS011;10384;51.940;8.432;2022-12-20T03:19:05;6.20;;;2.30;;
20449;SDS011;10384;51.940;8.432;2022-12-20T03:21:31;3.40;;;2.00;;
20449;SDS011;10384;51.940;8.432;2022-12-20T03:23:57;3.37;;;2.33;;
20449;SDS011;10384;51.940;8.432;2022-12-20T03:26:23;3.37;;;2.17;;
20449;SDS011;10384;51.940;8.432;2022-12-20T03:28:49;3.70;;;2.10;;
20449;SDS011;10384;51.940;8.432;2022-12-20T03:31:15;4.33;;;2.10;;
20449;SDS011;10384;51.940;8.432;2022-12-20T03:33:40;5.03;;;2.50;;
20449;SDS011;10384;51.940;8.432;2022-12-20T03:36:06;5.00;;;2.20;;
20449;SDS011;10384;51.940;8.432;2022-12-20T03:38:32;3.40;;;2.10;;
20449;SDS011;10384;51.940;8.432;2022-12-20T03:40:58;3.30;;;1.93;;
20449;SDS011;10384;51.940;8.432;2022-12-20T03:43:24;6.07;;;2.00;;
20449;SDS011;10384;51.940;8.432;2022-12-20T03:45:50;5.60;;;2.57;;
20449;SDS011;10384;51.940;8.432;2022-12-20T03:48:16;3.83;;;2.00;;
20449;SDS011;10384;51.940;8.432;2022-12-20T03:50:42;7.27;;;2.87;;
20449;SDS011;10384;51.940;8.432;2022-12-20T03:53:08;3.10;;;1.83;;
20449;SDS011;10384;51.940;8.432;2022-12-20T03:55:34;3.00;;;2.00;;
20449;SDS011;10384;51.940;8.432;2022-12-20T03:58:00;3.07;;;2.20;;
20449;SDS011;10384;51.940;8.432;2022-12-20T04:00:26;5.33;;;2.40;;
20449;SDS011;10384;51.940;8.432;2022-12-20T04:02:52;4.77;;;1.93;;
20449;SDS011;10384;51.940;8.432;2022-12-20T04:05:18;3.43;;;2.20;;
20449;SDS011;10384;51.940;8.432;2022-12-20T04:07:45;7.27;;;2.40;;
20449;SDS011;10384;51.940;8.432;2022-12-20T04:10:11;3.80;;;1.93;;
20449;SDS011;10384;51.940;8.432;2022-12-20T04:12:37;3.67;;;2.10;;
20449;SDS011;10384;51.940;8.432;2022-12-20T04:15:03;4.80;;;2.20;;
20449;SDS011;10384;51.940;8.432;2022-12-20T04:17:29;4.03;;;2.50;;
20449;SDS011;10384;51.940;8.432;2022-12-20T04:19:55;3.13;;;2.13;;
20449;SDS011;10384;51.940;8.432;2022-12-20T04:22:21;6.13;;;2.30;;
20449;SDS011;10384;51.940;8.432;2022-12-20T04:24:47;5.80;;;2.80;;
20449;SDS011;10384;51.940;8.432;2022-12-20T04:27:13;3.60;;;2.10;;
20449;SDS011;10384;51.940;8.432;2022-12-20T04:29:39;5.53;;;2.37;;
20449;SDS011;10384;51.940;8.432;2022-12-20T04:32:05;3.83;;;2.30;;
20449;SDS011;10384;51.940;8.432;2022-12-20T04:34:31;3.27;;;2.10;;
20449;SDS011;10384;51.940;8.432;2022-12-20T04:36:57;8.00;;;2.57;;
20449;SDS011;10384;51.940;8.432;2022-12-20T04:39:22;4.87;;;2.30;;
20449;SDS011;10384;51.940;8.432;2022-12-20T04:41:48;6.80;;;2.30;;
20449;SDS011;10384;51.940;8.432;2022-12-20T04:44:14;7.20;;;2.93;;
20449;SDS011;10384;51.940;8.432;2022-12-20T04:46:40;7.50;;;2.97;;
20449;SDS011;10384;51.940;8.432;2022-12-20T04:49:06;4.27;;;2.20;;
20449;SDS011;10384;51.940;8.432;2022-12-20T04:51:32;4.90;;;2.23;;
20449;SDS011;10384;51.940;8.432;2022-12-20T04:53:58;4.60;;;2.23;;
20449;SDS011;10384;51.940;8.432;2022-12-20T04:56:25;4.23;;;2.60;;
20449;SDS011;10384;51.940;8.432;2022-12-20T04:58:52;6.57;;;2.83;;
20449;SDS011;10384;51.940;8.432;2022-12-20T05:01:18;5.23;;;2.70;;
20449;SDS011;10384;51.940;8.432;2022-12-20T05:03:45;5.17;;;2.83;;
20449;SDS011;10384;51.940;8.432;2022-12-20T05:06:11;6.13;;;2.83;;
20449;SDS011;10384;51.940;8.432;2022-12-20T05:08:37;7.00;;;3.00;;
20449;SDS011;10384;51.940;8.432;2022-12-20T05:11:06;4.50;;;2.80;;
20449;SDS011;10384;51.940;8.432;2022-12-20T05:13:33;5.70;;;2.80;;
20449;SDS011;10384;51.940;8.432;2022-12-20T05:15:59;5.73;;;2.87;;
20449;SDS011;10384;51.940;8.432;2022-12-20T05:18:26;4.70;;;2.67;;
20449;SDS011;10384;51.940;8.432;2022-12-20T05:20:58;5.77;;;3.17;;
20449;SDS011;10384;51.940;8.432;2022-12-20T05:23:43;5.53;;;2.77;;
20449;SDS011;10384;51.940;8.432;2022-12-20T05:26:30;8.40;;;2.90;;
20449;SDS011;10384;51.940;8.432;2022-12-20T05:28:56;5.37;;;3.10;;
20449;SDS011;10384;51.940;8.432;2022-12-20T05:31:22;8.20;;;3.00;;
20449;SDS011;10384;51.940;8.432;2022-12-20T05:33:48;6.27;;;3.10;;
20449;SDS011;10384;51.940;8.432;2022-12-20T05:36:14;5.23;;;2.67;;
20449;SDS011;10384;51.940;8.432;2022-12-20T05:38:40;7.00;;;3.17;;
20449;SDS011;10384;51.940;8.432;2022-12-20T05:41:06;4.60;;;2.83;;
20449;SDS011;10384;51.940;8.432;2022-12-20T05:43:32;5.70;;;3.00;;
20449;SDS011;10384;51.940;8.432;2022-12-20T05:45:58;5.90;;;2.90;;
20449;SDS011;10384;51.940;8.432;2022-12-20T05:48:24;7.73;;;3.20;;
20449;SDS011;10384;51.940;8.432;2022-12-20T05:50:50;8.90;;;2.90;;
20449;SDS011;10384;51.940;8.432;2022-12-20T05:53:16;7.83;;;3.40;;
20449;SDS011;10384;51.940;8.432;2022-12-20T05:55:48;6.13;;;3.33;;
20449;SDS011;10384;51.940;8.432;2022-12-20T05:58:15;6.33;;;3.13;;
20449;SDS011;10384;51.940;8.432;2022-12-20T06:00:42;8.00;;;3.60;;
20449;SDS011;10384;51.940;8.432;2022-12-20T06:03:08;7.37;;;3.70;;
20449;SDS011;10384;51.940;8.432;2022-12-20T06:05:35;6.80;;;3.93;;
20449;SDS011;10384;51.940;8.432;2022-12-20T06:08:02;11.03;;;4.47;;
20449;SDS011;10384;51.940;8.432;2022-12-20T06:10:28;9.10;;;3.63;;
20449;SDS011;10384;51.940;8.432;2022-12-20T06:12:54;7.87;;;3.40;;
20449;SDS011;10384;51.940;8.432;2022-12-20T06:15:20;7.30;;;3.47;;
20449;SDS011;10384;51.940;8.432;2022-12-20T06:17:46;8.30;;;3.93;;
20449;SDS011;10384;51.940;8.432;2022-12-20T06:20:12;8.87;;;4.20;;
20449;SDS011;10384;51.940;8.432;2022-12-20T06:22:38;6.23;;;3.63;;
20449;SDS011;10384;51.940;8.432;2022-12-20T06:25:04;8.80;;;4.37;;
20449;SDS011;10384;51.940;8.432;2022-12-20T06:27:33;7.17;;;3.83;;
20449;SDS011;10384;51.940;8.432;2022-12-20T06:29:59;10.93;;;4.50;;
20449;SDS011;10384;51.940;8.432;2022-12-20T06:32:25;11.43;;;4.40;;
20449;SDS011;10384;51.940;8.432;2022-12-20T06:34:51;7.27;;;3.70;;
20449;SDS011;10384;51.940;8.432;2022-12-20T06:37:17;6.63;;;3.87;;
20449;SDS011;10384;51.940;8.432;2022-12-20T06:39:42;7.57;;;4.43;;
20449;SDS011;10384;51.940;8.432;2022-12-20T06:42:08;14.40;;;6.73;;
20449;SDS011;10384;51.940;8.432;2022-12-20T06:44:34;8.00;;;4.50;;
20449;SDS011;10384;51.940;8.432;2022-12-20T06:47:00;9.20;;;4.23;;
20449;SDS011;10384;51.940;8.432;2022-12-20T06:49:26;12.67;;;4.33;;
20449;SDS011;10384;51.940;8.432;2022-12-20T06:51:52;12.17;;;5.47;;
20449;SDS011;10384;51.940;8.432;2022-12-20T06:54:18;11.70;;;5.43;;
20449;SDS011;10384;51.940;8.432;2022-12-20T06:56:44;9.13;;;5.10;;
20449;SDS011;10384;51.940;8.432;2022-12-20T06:59:10;9.33;;;4.63;;
20449;SDS011;10384;51.940;8.432;2022-12-20T07:01:36;7.13;;;4.13;;
20449;SDS011;10384;51.940;8.432;2022-12-20T07:04:02;9.53;;;4.00;;
20449;SDS011;10384;51.940;8.432;2022-12-20T07:06:28;11.17;;;4.07;;
20449;SDS011;10384;51.940;8.432;2022-12-20T07:08:54;7.77;;;4.13;;
20449;SDS011;10384;51.940;8.432;2022-12-20T07:11:20;7.93;;;4.43;;
20449;SDS011;10384;51.940;8.432;2022-12-20T07:13:46;7.90;;;4.00;;
20449;SDS011;10384;51.940;8.432;2022-12-20T07:16:14;10.23;;;4.00;;
20449;SDS011;10384;51.940;8.432;2022-12-20T07:18:40;9.70;;;3.93;;
20449;SDS011;10384;51.940;8.432;2022-12-20T07:21:06;10.73;;;4.20;;
20449;SDS011;10384;51.940;8.432;2022-12-20T07:23:32;9.87;;;3.77;;
20449;SDS011;10384;51.940;8.432;2022-12-20T07:25:58;6.53;;;3.80;;
20449;SDS011;10384;51.940;8.432;2022-12-20T07:28:25;9.73;;;5.17;;
20449;SDS011;10384;51.940;8.432;2022-12-20T07:30:52;10.47;;;4.37;;
20449;SDS011;10384;51.940;8.432;2022-12-20T07:33:18;10.03;;;4.57;;
20449;SDS011;10384;51.940;8.432;2022-12-20T07:35:44;11.30;;;4.90;;
20449;SDS011;10384;51.940;8.432;2022-12-20T07:38:11;11.00;;;4.90;;
20449;SDS011;10384;51.940;8.432;2022-12-20T07:40:40;17.13;;;8.27;;
20449;SDS011;10384;51.940;8.432;2022-12-20T07:43:08;11.57;;;4.93;;
20449;SDS011;10384;51.940;8.432;2022-12-20T07:45:34;13.33;;;5.57;;
20449;SDS011;10384;51.940;8.432;2022-12-20T07:48:01;14.00;;;5.90;;
20449;SDS011;10384;51.940;8.432;2022-12-20T07:50:27;12.33;;;5.80;;
20449;SDS011;10384;51.940;8.432;2022-12-20T07:52:54;11.63;;;5.93;;
20449;SDS011;10384;51.940;8.432;2022-12-20T07:55:20;13.07;;;6.23;;
20449;SDS011;10384;51.940;8.432;2022-12-20T07:57:47;12.30;;;5.93;;
20449;SDS011;10384;51.940;8.432;2022-12-20T08:00:15;11.03;;;6.17;;
20449;SDS011;10384;51.940;8.432;2022-12-20T08:03:04;13.37;;;6.83;;
20449;SDS011;10384;51.940;8.432;2022-12-20T08:05:28;15.37;;;6.23;;
20449;SDS011;10384;51.940;8.432;2022-12-20T08:07:55;13.87;;;6.93;;
20449;SDS011;10384;51.940;8.432;2022-12-20T08:10:22;13.80;;;6.17;;
20449;SDS011;10384;51.940;8.432;2022-12-20T08:12:48;16.53;;;6.60;;
20449;SDS011;10384;51.940;8.432;2022-12-20T08:15:14;14.57;;;7.03;;
20449;SDS011;10384;51.940;8.432;2022-12-20T08:17:40;16.60;;;6.70;;
20449;SDS011;10384;51.940;8.432;2022-12-20T08:20:06;17.83;;;6.63;;
20449;SDS011;10384;51.940;8.432;2022-12-20T08:22:33;17.50;;;7.70;;
20449;SDS011;10384;51.940;8.432;2022-12-20T08:24:59;28.03;;;9.10;;
20449;SDS011;10384;51.940;8.432;2022-12-20T08:27:25;16.57;;;7.63;;
20449;SDS011;10384;51.940;8.432;2022-12-20T08:29:51;18.63;;;7.30;;
20449;SDS011;10384;51.940;8.432;2022-12-20T08:32:17;14.60;;;6.93;;
20449;SDS011;10384;51.940;8.432;2022-12-20T08:34:43;17.27;;;6.63;;
20449;SDS011;10384;51.940;8.432;2022-12-20T08:37:09;17.83;;;7.00;;
20449;SDS011;10384;51.940;8.432;2022-12-20T08:39:35;19.63;;;8.00;;
20449;SDS011;10384;51.940;8.432;2022-12-20T08:42:03;15.63;;;7.27;;
20449;SDS011;10384;51.940;8.432;2022-12-20T08:44:29;17.63;;;7.67;;
20449;SDS011;10384;51.940;8.432;2022-12-20T08:46:55;12.13;;;6.77;;
20449;SDS011;10384;51.940;8.432;2022-12-20T08:49:21;16.00;;;6.97;;
20449;SDS011;10384;51.940;8.432;2022-12-20T08:51:47;16.53;;;7.00;;
20449;SDS011;10384;51.940;8.432;2022-12-20T08:54:13;15.63;;;7.10;;
20449;SDS011;10384;51.940;8.432;2022-12-20T08:56:39;15.33;;;6.77;;
20449;SDS011;10384;51.940;8.432;2022-12-20T08:59:05;18.07;;;7.60;;
20449;SDS011;10384;51.940;8.432;2022-12-20T09:01:31;15.00;;;7.13;;
20449;SDS011;10384;51.940;8.432;2022-12-20T09:03:57;14.43;;;6.73;;
20449;SDS011;10384;51.940;8.432;2022-12-20T09:06:24;12.50;;;6.33;;
20449;SDS011;10384;51.940;8.432;2022-12-20T09:08:50;13.63;;;6.60;;
20449;SDS011;10384;51.940;8.432;2022-12-20T09:11:20;28.17;;;10.83;;
20449;SDS011;10384;51.940;8.432;2022-12-20T09:13:47;18.57;;;7.53;;
20449;SDS011;10384;51.940;8.432;2022-12-20T09:16:14;18.77;;;7.67;;
20449;SDS011;10384;51.940;8.432;2022-12-20T09:18:40;13.00;;;6.67;;
20449;SDS011;10384;51.940;8.432;2022-12-20T09:21:07;13.03;;;6.77;;
20449;SDS011;10384;51.940;8.432;2022-12-20T09:23:34;14.47;;;7.13;;
20449;SDS011;10384;51.940;8.432;2022-12-20T09:26:01;14.97;;;6.60;;
20449;SDS011;10384;51.940;8.432;2022-12-20T09:28:28;13.80;;;6.53;;
20449;SDS011;10384;51.940;8.432;2022-12-20T09:30:56;13.23;;;6.43;;
20449;SDS011;10384;51.940;8.432;2022-12-20T09:33:22;13.07;;;5.57;;
20449;SDS011;10384;51.940;8.432;2022-12-20T09:35:48;16.07;;;6.80;;
20449;SDS011;10384;51.940;8.432;2022-12-20T09:38:14;15.37;;;5.93;;
20449;SDS011;10384;51.940;8.432;2022-12-20T09:40:44;13.37;;;5.80;;
20449;SDS011;10384;51.940;8.432;2022-12-20T09:43:12;11.10;;;6.07;;
20449;SDS011;10384;51.940;8.432;2022-12-20T09:45:38;12.10;;;5.63;;
20449;SDS011;10384;51.940;8.432;2022-12-20T09:48:05;13.43;;;5.97;;
20449;SDS011;10384;51.940;8.432;2022-12-20T09:50:37;11.47;;;5.60;;
20449;SDS011;10384;51.940;8.432;2022-12-20T09:53:12;15.13;;;6.00;;
20449;SDS011;10384;51.940;8.432;2022-12-20T09:55:41;11.90;;;5.53;;
20449;SDS011;10384;51.940;8.432;2022-12-20T09:58:18;13.60;;;7.13;;
20449;SDS011;10384;51.940;8.432;2022-12-20T10:00:48;10.87;;;5.50;;
20449;SDS011;10384;51.940;8.432;2022-12-20T10:03:20;12.83;;;5.80;;
20449;SDS011;10384;51.940;8.432;2022-12-20T10:08:22;14.70;;;5.93;;
20449;SDS011;10384;51.940;8.432;2022-12-20T10:10:55;11.87;;;5.83;;
20449;SDS011;10384;51.940;8.432;2022-12-20T10:16:28;11.77;;;5.73;;
20449;SDS011;10384;51.940;8.432;2022-12-20T10:24:15;10.37;;;4.87;;
20449;SDS011;10384;51.940;8.432;2022-12-20T10:26:42;11.70;;;5.40;;
20449;SDS011;10384;51.940;8.432;2022-12-20T10:29:10;9.43;;;5.00;;
20449;SDS011;10384;51.940;8.432;2022-12-20T10:31:37;9.53;;;5.23;;
20449;SDS011;10384;51.940;8.432;2022-12-20T10:34:03;11.07;;;5.17;;
20449;SDS011;10384;51.940;8.432;2022-12-20T10:36:33;10.10;;;5.00;;
20449;SDS011;10384;51.940;8.432;2022-12-20T10:39:00;11.77;;;5.33;;
20449;SDS011;10384;51.940;8.432;2022-12-20T10:41:28;12.30;;;5.30;;
20449;SDS011;10384;51.940;8.432;2022-12-20T10:46:20;11.40;;;5.00;;
20449;SDS011;10384;51.940;8.432;2022-12-20T10:48:47;10.60;;;5.43;;
20449;SDS011;10384;51.940;8.432;2022-12-20T10:51:14;11.10;;;5.30;;
20449;SDS011;10384;51.940;8.432;2022-12-20T10:53:57;8.17;;;4.70;;
20449;SDS011;10384;51.940;8.432;2022-12-20T10:56:31;21.33;;;9.47;;
20449;SDS011;10384;51.940;8.432;2022-12-20T10:58:59;10.00;;;4.93;;
20449;SDS011;10384;51.940;8.432;2022-12-20T11:01:35;10.40;;;5.03;;
20449;SDS011;10384;51.940;8.432;2022-12-20T11:04:02;10.93;;;4.80;;
20449;SDS011;10384;51.940;8.432;2022-12-20T11:11:56;11.73;;;5.47;;
20449;SDS011;10384;51.940;8.432;2022-12-20T11:14:22;10.30;;;4.80;;
20449;SDS011;10384;51.940;8.432;2022-12-20T11:16:48;8.73;;;4.70;;
20449;SDS011;10384;51.940;8.432;2022-12-20T11:19:37;9.27;;;4.93;;
20449;SDS011;10384;51.940;8.432;2022-12-20T11:22:18;10.87;;;4.30;;
20449;SDS011;10384;51.940;8.432;2022-12-20T11:30:08;8.93;;;4.10;;
20449;SDS011;10384;51.940;8.432;2022-12-20T11:32:42;9.13;;;3.70;;
20449;SDS011;10384;51.940;8.432;2022-12-20T11:38:25;6.50;;;3.30;;
20449;SDS011;10384;51.940;8.432;2022-12-20T11:41:07;5.57;;;2.80;;
20449;SDS011;10384;51.940;8.432;2022-12-20T11:43:42;5.20;;;3.20;;
20449;SDS011;10384;51.940;8.432;2022-12-20T11:46:25;5.80;;;2.47;;
20449;SDS011;10384;51.940;8.432;2022-12-20T11:51:22;5.70;;;2.67;;
20449;SDS011;10384;51.940;8.432;2022-12-20T11:56:29;4.67;;;2.67;;
20449;SDS011;10384;51.940;8.432;2022-12-20T12:01:46;3.87;;;2.30;;
20449;SDS011;10384;51.940;8.432;2022-12-20T12:04:21;4.50;;;2.50;;
20449;SDS011;10384;51.940;8.432;2022-12-20T12:06:50;4.33;;;2.43;;
20449;SDS011;10384;51.940;8.432;2022-12-20T12:12:01;3.87;;;2.40;;
20449;SDS011;10384;51.940;8.432;2022-12-20T12:14:41;6.30;;;2.17;;
20449;SDS011;10384;51.940;8.432;2022-12-20T12:17:11;5.73;;;2.83;;
20449;SDS011;10384;51.940;8.432;2022-12-20T12:19:39;3.90;;;2.50;;
20449;SDS011;10384;51.940;8.432;2022-12-20T12:22:08;4.17;;;2.40;;
20449;SDS011;10384;51.940;8.432;2022-12-20T12:24:38;5.07;;;2.30;;
20449;SDS011;10384;51.940;8.432;2022-12-20T12:27:06;5.20;;;2.57;;
20449;SDS011;10384;51.940;8.432;2022-12-20T12:29:36;4.60;;;2.33;;
20449;SDS011;10384;51.940;8.432;2022-12-20T12:32:03;3.23;;;2.17;;
20449;SDS011;10384;51.940;8.432;2022-12-20T12:37:14;3.57;;;1.90;;
20449;SDS011;10384;51.940;8.432;2022-12-20T12:44:55;4.07;;;2.30;;
20449;SDS011;10384;51.940;8.432;2022-12-20T12:47:24;7.50;;;2.70;;
20449;SDS011;10384;51.940;8.432;2022-12-20T12:49:53;4.23;;;2.20;;
20449;SDS011;10384;51.940;8.432;2022-12-20T12:57:58;5.20;;;2.13;;
20449;SDS011;10384;51.940;8.432;2022-12-20T13:00:53;5.80;;;2.40;;
20449;SDS011;10384;51.940;8.432;2022-12-20T13:09:08;6.13;;;2.03;;
20449;SDS011;10384;51.940;8.432;2022-12-20T13:11:38;5.03;;;2.10;;
20449;SDS011;10384;51.940;8.432;2022-12-20T13:16:43;3.37;;;1.90;;
20449;SDS011;10384;51.940;8.432;2022-12-20T13:19:10;6.63;;;2.27;;
20449;SDS011;10384;51.940;8.432;2022-12-20T13:21:37;4.33;;;2.00;;
20449;SDS011;10384;51.940;8.432;2022-12-20T13:26:51;4.20;;;2.30;;
20449;SDS011;10384;51.940;8.432;2022-12-20T13:29:27;4.87;;;2.07;;
20449;SDS011;10384;51.940;8.432;2022-12-20T13:31:57;4.70;;;1.87;;
20449;SDS011;10384;51.940;8.432;2022-12-20T13:34:37;2.30;;;1.70;;
20449;SDS011;10384;51.940;8.432;2022-12-20T13:37:20;4.17;;;1.77;;
20449;SDS011;10384;51.940;8.432;2022-12-20T13:39:49;2.93;;;1.90;;
20449;SDS011;10384;51.940;8.432;2022-12-20T13:42:25;4.90;;;1.87;;
20449;SDS011;10384;51.940;8.432;2022-12-20T13:44:52;3.40;;;1.80;;
20449;SDS011;10384;51.940;8.432;2022-12-20T13:47:25;4.67;;;2.00;;
20449;SDS011;10384;51.940;8.432;2022-12-20T13:49:52;3.70;;;2.20;;
20449;SDS011;10384;51.940;8.432;2022-12-20T13:52:20;3.67;;;1.53;;
20449;SDS011;10384;51.940;8.432;2022-12-20T13:54:47;2.43;;;1.70;;
20449;SDS011;10384;51.940;8.432;2022-12-20T13:57:15;5.17;;;1.90;;
20449;SDS011;10384;51.940;8.432;2022-12-20T13:59:48;6.93;;;1.97;;
20449;SDS011;10384;51.940;8.432;2022-12-20T14:02:18;4.17;;;2.03;;
20449;SDS011;10384;51.940;8.432;2022-12-20T14:04:45;4.10;;;1.73;;
20449;SDS011;10384;51.940;8.432;2022-12-20T14:07:15;7.17;;;1.97;;
20449;SDS011;10384;51.940;8.432;2022-12-20T14:09:44;3.20;;;2.03;;
20449;SDS011;10384;51.940;8.432;2022-12-20T14:12:12;2.40;;;1.67;;
20449;SDS011;10384;51.940;8.432;2022-12-20T14:14:56;7.73;;;2.07;;
20449;SDS011;10384;51.940;8.432;2022-12-20T14:22:30;3.97;;;1.87;;
20449;SDS011;10384;51.940;8.432;2022-12-20T14:24:57;6.73;;;1.93;;
20449;SDS011;10384;51.940;8.432;2022-12-20T14:27:23;2.60;;;1.60;;
20449;SDS011;10384;51.940;8.432;2022-12-20T14:29:49;3.70;;;1.73;;
20449;SDS011;10384;51.940;8.432;2022-12-20T14:32:16;7.87;;;1.90;;
20449;SDS011;10384;51.940;8.432;2022-12-20T14:34:43;2.80;;;1.80;;
20449;SDS011;10384;51.940;8.432;2022-12-20T14:39:56;4.37;;;1.73;;
20449;SDS011;10384;51.940;8.432;2022-12-20T14:42:25;7.27;;;2.40;;
20449;SDS011;10384;51.940;8.432;2022-12-20T14:45:00;3.37;;;1.97;;
20449;SDS011;10384;51.940;8.432;2022-12-20T14:47:27;4.27;;;2.03;;
20449;SDS011;10384;51.940;8.432;2022-12-20T14:49:57;4.97;;;2.37;;
20449;SDS011;10384;51.940;8.432;2022-12-20T14:52:34;3.73;;;1.80;;
20449;SDS011;10384;51.940;8.432;2022-12-20T14:55:05;4.53;;;1.77;;
20449;SDS011;10384;51.940;8.432;2022-12-20T15:08:18;15.73;;;3.90;;
20449;SDS011;10384;51.940;8.432;2022-12-20T15:13:17;5.93;;;2.83;;
20449;SDS011;10384;51.940;8.432;2022-12-20T15:15:44;6.03;;;2.60;;
20449;SDS011;10384;51.940;8.432;2022-12-20T15:18:19;4.03;;;2.07;;
20449;SDS011;10384;51.940;8.432;2022-12-20T15:20:46;13.43;;;3.80;;
20449;SDS011;10384;51.940;8.432;2022-12-20T15:23:16;13.17;;;3.77;;
20449;SDS011;10384;51.940;8.432;2022-12-20T15:25:42;19.07;;;4.67;;
20449;SDS011;10384;51.940;8.432;2022-12-20T15:28:16;16.40;;;5.33;;
20449;SDS011;10384;51.940;8.432;2022-12-20T15:30:43;21.57;;;5.30;;
20449;SDS011;10384;51.940;8.432;2022-12-20T15:33:14;19.57;;;5.13;;
20449;SDS011;10384;51.940;8.432;2022-12-20T15:35:41;18.67;;;4.93;;
20449;SDS011;10384;51.940;8.432;2022-12-20T15:38:13;8.03;;;2.60;;
20449;SDS011;10384;51.940;8.432;2022-12-20T15:40:43;5.70;;;2.27;;
20449;SDS011;10384;51.940;8.432;2022-12-20T15:43:14;9.00;;;3.07;;
20449;SDS011;10384;51.940;8.432;2022-12-20T15:45:44;5.97;;;2.40;;
20449;SDS011;10384;51.940;8.432;2022-12-20T15:48:12;5.50;;;2.47;;
20449;SDS011;10384;51.940;8.432;2022-12-20T15:50:38;8.47;;;2.60;;
20449;SDS011;10384;51.940;8.432;2022-12-20T15:53:04;6.07;;;2.90;;
20449;SDS011;10384;51.940;8.432;2022-12-20T15:55:30;8.07;;;3.50;;
20449;SDS011;10384;51.940;8.432;2022-12-20T15:57:56;7.77;;;4.23;;
20449;SDS011;10384;51.940;8.432;2022-12-20T16:00:22;7.53;;;4.10;;
20449;SDS011;10384;51.940;8.432;2022-12-20T16:02:50;11.70;;;3.93;;
20449;SDS011;10384;51.940;8.432;2022-12-20T16:05:15;6.83;;;3.67;;
20449;SDS011;10384;51.940;8.432;2022-12-20T16:07:41;6.53;;;3.33;;
20449;SDS011;10384;51.940;8.432;2022-12-20T16:10:08;6.33;;;3.33;;
20449;SDS011;10384;51.940;8.432;2022-12-20T16:12:34;8.53;;;3.70;;
20449;SDS011;10384;51.940;8.432;2022-12-20T16:15:01;8.03;;;4.00;;
20449;SDS011;10384;51.940;8.432;2022-12-20T16:17:27;7.07;;;3.90;;
20449;SDS011;10384;51.940;8.432;2022-12-20T16:19:53;6.33;;;3.57;;